Boyne City, Michigan
Current Conditions -  °F | °C
As of 6:55 PM on Saturday 25 Oct 2014 (Local Time) from KCVX Reporting Station
Clear Clear  
Wind Chill: 53°   Ceiling: Unl
Heat Index: 53°   Visibility: 10mi
Dew Point: 46°   Wind: 6mph
Humidity: 76%   Direction: 300°WNW
Pressure: 29.77"   Gusts: NA
Location:  45.22°N, 85.01°W
Report Text: KCVX 252255Z AUTO 30005KT 10SM CLR 12/08 A2977 RMK AO2 T01170076
Loading
Personal Weather Stations






























Interactive Weather Map
Tropical Storm Tracking
New forecast layout! Learn more

10-Day Weather Forecast

Advertisements
Track Severe Weather on mobile